Time;durP1;ratioP1;P1;durP2;ratioP2;P2;SDS_P1;SDS_P2;PMS_P1;PMS_P2;Temp;Humidity;BMP_temperature;BMP_pressure;BME280_temperature;BME280_humidity;BME280_pressure;Samples;Min_cycle;Max_cycle;Signal;HPM_P1;HPM_P2
2021/07/08 00:01:46;;;;;;;;;;;20.90;63.60;;;;;;493094;242;1192;-44
2021/07/08 00:03:47;;;;;;;;;;;20.90;63.60;;;;;;493568;242;1212;-44
2021/07/08 00:05:48;;;;;;;;;;;20.90;63.60;;;;;;493388;238;1321;-44
2021/07/08 00:07:50;;;;;;;;;;;20.90;63.50;;;;;;493466;242;1189;-44
2021/07/08 00:09:51;;;;;;;;;;;20.90;63.60;;;;;;493593;242;1036;-44
2021/07/08 00:11:52;;;;;;;;;;;20.90;63.60;;;;;;493327;242;1228;-44
2021/07/08 00:13:54;;;;;;;;;;;20.90;63.50;;;;;;493189;242;2179;-44
2021/07/08 00:15:55;;;;;;;;;;;20.90;63.50;;;;;;493556;242;1173;-44
2021/07/08 00:17:56;;;;;;;;;;;20.90;63.50;;;;;;493580;242;1032;-44
2021/07/08 00:19:58;;;;;;;;;;;20.90;63.60;;;;;;493567;242;1083;-44
2021/07/08 00:21:59;;;;;;;;;;;20.90;63.60;;;;;;493575;242;1088;-44
2021/07/08 00:24:01;;;;;;;;;;;20.90;63.50;;;;;;493547;242;1064;-44
2021/07/08 00:26:02;;;;;;;;;;;20.90;63.60;;;;;;493539;242;1065;-44
2021/07/08 00:28:06;;;;;;;;;;;20.90;63.50;;;;;;493530;242;1243;-44
2021/07/08 00:30:05;;;;;;;;;;;20.90;63.50;;;;;;493183;242;2216;-44
2021/07/08 00:32:07;;;;;;;;;;;20.90;63.50;;;;;;493597;242;1055;-44
2021/07/08 00:34:08;;;;;;;;;;;20.90;63.60;;;;;;493480;242;2179;-44
2021/07/08 00:36:09;;;;;;;;;;;20.90;63.60;;;;;;493139;242;1225;-45
2021/07/08 00:38:11;;;;;;;;;;;20.90;63.50;;;;;;493602;242;1138;-44
2021/07/08 00:40:12;;;;;;;;;;;20.90;63.60;;;;;;493587;242;1064;-44
2021/07/08 00:42:13;;;;;;;;;;;20.90;63.60;;;;;;493131;242;1186;-44
2021/07/08 00:44:15;;;;;;;;;;;20.90;63.50;;;;;;493239;242;1249;-44
2021/07/08 00:46:16;;;;;;;;;;;20.90;63.50;;;;;;493525;242;1296;-44
2021/07/08 00:48:17;;;;;;;;;;;20.90;63.60;;;;;;493632;242;1249;-44
2021/07/08 00:50:19;;;;;;;;;;;20.90;63.40;;;;;;493641;242;1059;-43
2021/07/08 00:52:20;;;;;;;;;;;20.90;63.50;;;;;;493564;241;2148;-44
2021/07/08 00:54:21;;;;;;;;;;;20.90;63.40;;;;;;493161;242;1218;-44
2021/07/08 00:56:22;;;;;;;;;;;20.90;63.50;;;;;;493382;242;1265;-44
2021/07/08 00:58:24;;;;;;;;;;;20.90;63.50;;;;;;493516;242;1141;-44
2021/07/08 01:00:25;;;;;;;;;;;20.90;63.60;;;;;;493407;242;1060;-44
2021/07/08 01:02:26;;;;;;;;;;;20.90;63.50;;;;;;493624;242;1036;-44
2021/07/08 01:04:28;;;;;;;;;;;20.90;63.50;;;;;;493191;242;1204;-44
2021/07/08 01:06:29;;;;;;;;;;;21.00;63.60;;;;;;493246;242;1072;-44
2021/07/08 01:08:30;;;;;;;;;;;21.00;63.60;;;;;;493159;242;1056;-44
2021/07/08 01:10:32;;;;;;;;;;;20.90;63.40;;;;;;493522;242;1081;-44
2021/07/08 01:12:33;;;;;;;;;;;21.00;63.50;;;;;;493179;242;2136;-44
2021/07/08 01:14:34;;;;;;;;;;;21.00;63.50;;;;;;493052;242;1288;-44
2021/07/08 01:16:36;;;;;;;;;;;21.00;63.50;;;;;;493103;242;1050;-44
2021/07/08 01:18:37;;;;;;;;;;;21.00;63.50;;;;;;493132;242;1193;-44
2021/07/08 01:20:39;;;;;;;;;;;21.00;63.50;;;;;;493446;242;983;-44
2021/07/08 01:22:40;;;;;;;;;;;21.00;63.60;;;;;;493600;242;1113;-44
2021/07/08 01:24:41;;;;;;;;;;;20.90;63.60;;;;;;493145;242;1049;-44
2021/07/08 01:26:43;;;;;;;;;;;20.90;63.50;;;;;;493424;242;1672;-47
2021/07/08 01:28:44;;;;;;;;;;;20.90;63.60;;;;;;493537;242;1163;-44
2021/07/08 01:30:46;;;;;;;;;;;20.90;63.60;;;;;;493194;242;1405;-44
2021/07/08 01:32:47;;;;;;;;;;;20.90;63.60;;;;;;492979;242;2148;-44
2021/07/08 01:34:48;;;;;;;;;;;20.90;63.60;;;;;;493432;242;1091;-44
2021/07/08 01:36:49;;;;;;;;;;;20.90;63.60;;;;;;493020;242;1563;-44
2021/07/08 01:38:51;;;;;;;;;;;20.90;63.60;;;;;;493104;242;1066;-44
2021/07/08 01:40:52;;;;;;;;;;;20.90;63.60;;;;;;493517;242;1441;-44
2021/07/08 01:42:53;;;;;;;;;;;20.90;63.60;;;;;;493089;242;1272;-44
2021/07/08 01:44:55;;;;;;;;;;;20.90;63.50;;;;;;493302;242;1380;-44
2021/07/08 01:46:56;;;;;;;;;;;21.00;63.50;;;;;;493561;242;1365;-44
2021/07/08 01:48:57;;;;;;;;;;;21.00;63.50;;;;;;493438;242;1069;-44
2021/07/08 01:50:59;;;;;;;;;;;21.00;63.60;;;;;;493074;242;1390;-44
2021/07/08 01:53:00;;;;;;;;;;;20.90;63.60;;;;;;493112;242;2175;-44
2021/07/08 01:55:01;;;;;;;;;;;20.90;63.60;;;;;;493093;242;1122;-44
2021/07/08 01:57:03;;;;;;;;;;;20.90;63.60;;;;;;493241;242;1316;-44
2021/07/08 01:59:04;;;;;;;;;;;20.90;63.60;;;;;;493437;242;1187;-44
2021/07/08 02:01:06;;;;;;;;;;;20.90;63.60;;;;;;493487;242;1144;-44
2021/07/08 02:03:07;;;;;;;;;;;20.90;63.60;;;;;;493520;242;1061;-44
2021/07/08 02:05:08;;;;;;;;;;;20.90;63.60;;;;;;493590;242;1171;-44
2021/07/08 02:07:10;;;;;;;;;;;20.90;63.60;;;;;;493074;242;1313;-44
2021/07/08 02:09:11;;;;;;;;;;;20.90;63.50;;;;;;493652;242;1304;-44
2021/07/08 02:11:12;;;;;;;;;;;20.90;63.50;;;;;;493388;242;1123;-44
2021/07/08 02:13:14;;;;;;;;;;;20.90;63.50;;;;;;493591;242;2136;-44
2021/07/08 02:15:15;;;;;;;;;;;20.90;63.50;;;;;;493148;242;1198;-43
2021/07/08 02:17:16;;;;;;;;;;;20.90;63.50;;;;;;493100;242;1187;-44
2021/07/08 02:19:18;;;;;;;;;;;20.90;63.50;;;;;;493655;242;1171;-44
2021/07/08 02:21:19;;;;;;;;;;;20.90;63.50;;;;;;493514;242;1183;-44
2021/07/08 02:23:20;;;;;;;;;;;21.00;63.50;;;;;;493658;242;1165;-44
2021/07/08 02:25:21;;;;;;;;;;;21.00;63.50;;;;;;493122;242;1084;-44
2021/07/08 02:27:23;;;;;;;;;;;21.00;63.50;;;;;;493275;242;1212;-44
2021/07/08 02:29:24;;;;;;;;;;;21.00;63.60;;;;;;493530;242;1233;-44
2021/07/08 02:31:25;;;;;;;;;;;21.00;63.50;;;;;;493117;242;1145;-44
2021/07/08 02:33:27;;;;;;;;;;;21.00;63.50;;;;;;493104;242;2187;-44
2021/07/08 02:35:28;;;;;;;;;;;21.00;63.60;;;;;;493114;242;1050;-44
2021/07/08 02:37:29;;;;;;;;;;;21.00;63.50;;;;;;493115;242;1321;-44
2021/07/08 02:39:31;;;;;;;;;;;20.90;63.40;;;;;;493117;242;1220;-44
2021/07/08 02:41:32;;;;;;;;;;;21.00;63.50;;;;;;493319;242;1349;-44
2021/07/08 02:43:33;;;;;;;;;;;21.00;63.40;;;;;;493100;242;1245;-44
2021/07/08 02:45:35;;;;;;;;;;;20.90;63.40;;;;;;492880;242;1242;-44
2021/07/08 02:47:36;;;;;;;;;;;20.90;63.50;;;;;;493145;242;1224;-44
2021/07/08 02:49:37;;;;;;;;;;;21.00;63.50;;;;;;493131;242;1141;-44
2021/07/08 02:51:39;;;;;;;;;;;21.00;63.50;;;;;;493083;242;1560;-44
2021/07/08 02:53:40;;;;;;;;;;;21.00;63.60;;;;;;493066;242;2191;-44
2021/07/08 02:55:41;;;;;;;;;;;21.00;63.60;;;;;;493492;242;1187;-44
2021/07/08 02:57:45;;;;;;;;;;;20.90;63.50;;;;;;493409;242;1254;-44
2021/07/08 02:59:45;;;;;;;;;;;20.90;63.50;;;;;;492952;241;1430;-44
2021/07/08 03:01:46;;;;;;;;;;;21.00;63.50;;;;;;493541;242;1213;-44
2021/07/08 03:03:47;;;;;;;;;;;21.00;63.40;;;;;;493598;242;1275;-44
2021/07/08 03:05:49;;;;;;;;;;;21.00;63.60;;;;;;493120;242;1206;-44
2021/07/08 03:07:50;;;;;;;;;;;21.00;63.40;;;;;;493109;242;1190;-44
2021/07/08 03:09:51;;;;;;;;;;;21.00;63.40;;;;;;493096;238;1242;-44
2021/07/08 03:11:53;;;;;;;;;;;21.00;63.40;;;;;;493249;242;1160;-44
2021/07/08 03:13:54;;;;;;;;;;;21.00;63.40;;;;;;493201;242;2132;-44
2021/07/08 03:15:55;;;;;;;;;;;21.00;63.40;;;;;;493207;242;1137;-44
2021/07/08 03:17:57;;;;;;;;;;;21.00;63.40;;;;;;493487;242;1160;-44
2021/07/08 03:19:58;;;;;;;;;;;21.00;63.40;;;;;;493547;242;1366;-44
2021/07/08 03:22:00;;;;;;;;;;;21.00;63.40;;;;;;493311;242;1199;-44
2021/07/08 03:24:01;;;;;;;;;;;21.00;63.50;;;;;;493177;242;1051;-44
2021/07/08 03:26:02;;;;;;;;;;;21.00;63.50;;;;;;493558;242;1375;-44
2021/07/08 03:28:04;;;;;;;;;;;21.00;63.50;;;;;;493597;242;1111;-44
2021/07/08 03:30:05;;;;;;;;;;;21.00;63.50;;;;;;493143;242;1149;-44
2021/07/08 03:32:06;;;;;;;;;;;21.00;63.50;;;;;;493159;242;1086;-44
2021/07/08 03:34:08;;;;;;;;;;;21.00;63.50;;;;;;493071;242;2187;-44
2021/07/08 03:36:09;;;;;;;;;;;21.00;63.50;;;;;;493091;242;1104;-44
2021/07/08 03:38:10;;;;;;;;;;;21.00;63.40;;;;;;493263;242;1036;-44
2021/07/08 03:40:12;;;;;;;;;;;21.00;63.50;;;;;;493639;242;1119;-44
2021/07/08 03:42:13;;;;;;;;;;;21.00;63.50;;;;;;493426;242;1166;-44
2021/07/08 03:44:15;;;;;;;;;;;21.00;63.60;;;;;;493521;242;1049;-44
2021/07/08 03:46:16;;;;;;;;;;;21.00;63.40;;;;;;493103;242;1335;-44
2021/07/08 03:48:17;;;;;;;;;;;21.00;63.40;;;;;;493130;242;1061;-44
2021/07/08 03:50:19;;;;;;;;;;;21.00;63.40;;;;;;493622;242;1098;-44
2021/07/08 03:52:20;;;;;;;;;;;21.00;63.50;;;;;;493547;242;1195;-44
2021/07/08 03:54:21;;;;;;;;;;;21.00;63.40;;;;;;493384;242;2179;-44
2021/07/08 03:58:42;;;;;;;;;;;21.00;63.40;;;;;;493208;241;1140;-44
2021/07/08 04:00:43;;;;;;;;;;;21.00;63.50;;;;;;493425;242;1132;-44
2021/07/08 04:02:45;;;;;;;;;;;21.00;63.50;;;;;;493545;242;1091;-44
2021/07/08 04:04:46;;;;;;;;;;;21.00;63.50;;;;;;493482;242;1191;-44
2021/07/08 04:06:47;;;;;;;;;;;21.00;63.50;;;;;;493560;242;1123;-44
2021/07/08 04:08:49;;;;;;;;;;;21.00;63.40;;;;;;493630;242;1220;-44
2021/07/08 04:10:50;;;;;;;;;;;21.00;63.40;;;;;;493047;242;1138;-44
2021/07/08 04:12:51;;;;;;;;;;;21.00;63.30;;;;;;493350;242;1092;-44
2021/07/08 04:14:53;;;;;;;;;;;21.00;63.40;;;;;;493488;242;2191;-44
2021/07/08 04:16:54;;;;;;;;;;;21.00;63.50;;;;;;493100;242;1258;-44
2021/07/08 04:18:55;;;;;;;;;;;21.00;63.50;;;;;;493127;242;1049;-44
2021/07/08 04:20:57;;;;;;;;;;;21.00;63.40;;;;;;493063;242;1350;-43
2021/07/08 04:22:58;;;;;;;;;;;21.00;63.40;;;;;;493533;242;1144;-44
2021/07/08 04:24:59;;;;;;;;;;;21.00;63.40;;;;;;493223;242;1067;-44
2021/07/08 04:27:01;;;;;;;;;;;21.00;63.50;;;;;;493526;242;1028;-44
2021/07/08 04:29:02;;;;;;;;;;;21.00;63.40;;;;;;493575;242;1073;-44
2021/07/08 04:31:03;;;;;;;;;;;21.00;63.40;;;;;;492955;242;1270;-44
2021/07/08 04:33:05;;;;;;;;;;;21.00;63.40;;;;;;493129;242;1553;-44
2021/07/08 04:35:06;;;;;;;;;;;21.00;63.40;;;;;;493052;242;2147;-44
2021/07/08 04:37:07;;;;;;;;;;;21.00;63.50;;;;;;492981;242;1122;-44
2021/07/08 04:39:09;;;;;;;;;;;21.00;63.50;;;;;;493056;242;1191;-44
2021/07/08 04:41:10;;;;;;;;;;;21.00;63.50;;;;;;493111;242;1299;-44
2021/07/08 04:43:11;;;;;;;;;;;21.00;63.60;;;;;;493026;242;1213;-44
2021/07/08 04:45:13;;;;;;;;;;;21.00;63.60;;;;;;492960;242;1102;-44
2021/07/08 04:47:14;;;;;;;;;;;21.00;63.50;;;;;;492820;242;1249;-44
2021/07/08 04:49:15;;;;;;;;;;;21.00;63.40;;;;;;492998;242;1062;-44
2021/07/08 04:51:17;;;;;;;;;;;21.00;63.40;;;;;;492680;242;1220;-44
2021/07/08 04:53:18;;;;;;;;;;;21.00;63.50;;;;;;493050;242;1157;-44
2021/07/08 04:55:21;;;;;;;;;;;21.00;63.50;;;;;;492853;242;2155;-44
2021/07/08 04:57:21;;;;;;;;;;;21.00;63.60;;;;;;492819;242;1982;-44
2021/07/08 04:59:22;;;;;;;;;;;21.00;63.60;;;;;;493192;242;1109;-44
2021/07/08 05:01:23;;;;;;;;;;;21.00;63.60;;;;;;492878;242;1174;-44
2021/07/08 05:03:25;;;;;;;;;;;21.00;63.50;;;;;;493300;242;1120;-44
2021/07/08 05:05:26;;;;;;;;;;;21.00;63.50;;;;;;493038;242;1087;-44
2021/07/08 05:07:28;;;;;;;;;;;21.00;63.50;;;;;;492767;242;1160;-44
2021/07/08 05:09:29;;;;;;;;;;;21.00;63.50;;;;;;493243;242;1065;-44
2021/07/08 05:11:30;;;;;;;;;;;21.00;63.50;;;;;;493005;242;1176;-44
2021/07/08 05:13:32;;;;;;;;;;;21.00;63.40;;;;;;493081;242;1124;-44
2021/07/08 05:15:35;;;;;;;;;;;21.00;63.40;;;;;;492881;242;2136;-44
2021/07/08 05:17:34;;;;;;;;;;;21.00;63.40;;;;;;492779;241;1386;-44
2021/07/08 05:19:36;;;;;;;;;;;21.00;63.40;;;;;;493014;242;1074;-44
2021/07/08 05:21:37;;;;;;;;;;;21.00;63.40;;;;;;492912;242;1504;-44
2021/07/08 05:23:39;;;;;;;;;;;21.00;63.40;;;;;;493161;242;1158;-44
2021/07/08 05:25:40;;;;;;;;;;;21.00;63.40;;;;;;492861;242;1296;-44
2021/07/08 05:27:42;;;;;;;;;;;21.00;63.50;;;;;;492768;242;1116;-44
2021/07/08 05:29:43;;;;;;;;;;;21.00;63.40;;;;;;492983;242;1084;-44
2021/07/08 05:31:44;;;;;;;;;;;21.00;63.40;;;;;;493141;241;1180;-43
2021/07/08 05:33:46;;;;;;;;;;;21.00;63.40;;;;;;492866;242;1097;-44
2021/07/08 05:35:47;;;;;;;;;;;21.00;63.50;;;;;;492822;242;2251;-44
2021/07/08 05:37:49;;;;;;;;;;;21.00;63.50;;;;;;492796;242;1169;-44
2021/07/08 05:39:50;;;;;;;;;;;21.00;63.50;;;;;;492947;242;1029;-44
2021/07/08 05:41:51;;;;;;;;;;;21.00;63.50;;;;;;492808;242;1091;-44
2021/07/08 05:43:53;;;;;;;;;;;21.00;63.50;;;;;;492906;242;1117;-44
2021/07/08 05:45:54;;;;;;;;;;;21.00;63.50;;;;;;492661;242;1517;-44
2021/07/08 05:47:55;;;;;;;;;;;21.00;63.60;;;;;;492729;242;1317;-44
2021/07/08 05:49:57;;;;;;;;;;;21.00;63.50;;;;;;492737;242;1077;-44
2021/07/08 05:51:58;;;;;;;;;;;21.00;63.60;;;;;;492729;242;1144;-44
2021/07/08 05:54:00;;;;;;;;;;;21.00;63.50;;;;;;493009;242;1132;-44
2021/07/08 05:56:01;;;;;;;;;;;21.00;63.60;;;;;;492602;242;2176;-44
2021/07/08 05:58:02;;;;;;;;;;;21.00;63.60;;;;;;492621;242;1233;-44
2021/07/08 06:00:04;;;;;;;;;;;21.00;63.60;;;;;;492731;242;1149;-44
2021/07/08 06:02:05;;;;;;;;;;;21.00;63.60;;;;;;492526;242;1300;-44
2021/07/08 06:04:06;;;;;;;;;;;21.00;63.60;;;;;;492572;242;1206;-44
2021/07/08 06:06:08;;;;;;;;;;;21.00;63.60;;;;;;492646;242;1314;-44
2021/07/08 06:08:09;;;;;;;;;;;21.00;63.60;;;;;;492788;242;1171;-44
2021/07/08 06:10:10;;;;;;;;;;;21.00;63.50;;;;;;492669;242;1214;-44
2021/07/08 06:12:12;;;;;;;;;;;21.10;63.50;;;;;;492682;242;1277;-44
2021/07/08 06:14:13;;;;;;;;;;;21.00;63.50;;;;;;492510;242;1117;-44
2021/07/08 06:16:14;;;;;;;;;;;21.10;63.50;;;;;;492716;242;2171;-44
2021/07/08 06:18:16;;;;;;;;;;;21.10;63.60;;;;;;492616;242;1217;-44
2021/07/08 06:20:17;;;;;;;;;;;21.00;63.50;;;;;;492604;242;1082;-44
2021/07/08 06:22:18;;;;;;;;;;;21.00;63.50;;;;;;492286;242;1245;-44
2021/07/08 06:24:20;;;;;;;;;;;21.10;63.60;;;;;;492301;242;1086;-44
2021/07/08 06:26:21;;;;;;;;;;;21.00;63.40;;;;;;492589;242;1169;-44
2021/07/08 06:28:22;;;;;;;;;;;21.00;63.50;;;;;;492338;242;1238;-44
2021/07/08 06:30:24;;;;;;;;;;;21.00;63.60;;;;;;492308;242;1114;-44
2021/07/08 06:32:25;;;;;;;;;;;21.00;63.70;;;;;;492305;242;1351;-44
2021/07/08 06:34:26;;;;;;;;;;;20.90;63.90;;;;;;492299;242;2147;-44
2021/07/08 06:36:28;;;;;;;;;;;20.90;64.00;;;;;;492173;242;1261;-44
2021/07/08 06:38:29;;;;;;;;;;;20.80;64.20;;;;;;492241;242;1082;-44
2021/07/08 06:40:31;;;;;;;;;;;20.80;64.50;;;;;;492230;242;1140;-44
2021/07/08 06:42:32;;;;;;;;;;;20.70;64.50;;;;;;493056;242;1305;-44
2021/07/08 06:44:33;;;;;;;;;;;20.60;64.60;;;;;;492641;242;874;-44
2021/07/08 06:46:34;;;;;;;;;;;20.60;64.80;;;;;;492897;242;1184;-44
2021/07/08 06:48:36;;;;;;;;;;;20.60;64.90;;;;;;492575;242;1076;-44
2021/07/08 06:50:37;;;;;;;;;;;20.60;65.10;;;;;;492976;242;1164;-44
2021/07/08 06:52:38;;;;;;;;;;;20.50;65.20;;;;;;492984;242;1060;-44
2021/07/08 06:54:40;;;;;;;;;;;20.50;65.20;;;;;;492963;242;2183;-44
2021/07/08 06:56:42;;;;;;;;;;;20.50;65.30;;;;;;493053;242;1114;-44
2021/07/08 06:58:43;;;;;;;;;;;20.40;65.40;;;;;;493109;242;873;-44
2021/07/08 07:00:44;;;;;;;;;;;20.40;65.40;;;;;;493006;242;913;-44
2021/07/08 07:02:45;;;;;;;;;;;20.40;65.40;;;;;;492707;242;1132;-44
2021/07/08 07:04:47;;;;;;;;;;;20.40;65.50;;;;;;492544;242;880;-44
2021/07/08 07:06:48;;;;;;;;;;;20.40;65.50;;;;;;492901;241;1091;-44
2021/07/08 07:08:49;;;;;;;;;;;20.40;65.50;;;;;;492950;242;1304;-44
2021/07/08 07:10:51;;;;;;;;;;;20.40;65.50;;;;;;492993;242;937;-43
2021/07/08 07:12:52;;;;;;;;;;;20.30;65.50;;;;;;492604;242;1159;-44
2021/07/08 07:14:53;;;;;;;;;;;20.40;65.50;;;;;;492567;242;2178;-44
2021/07/08 07:16:55;;;;;;;;;;;20.50;65.30;;;;;;493062;242;1267;-44
2021/07/08 07:18:56;;;;;;;;;;;20.60;65.00;;;;;;492576;242;1322;-44
2021/07/08 07:20:57;;;;;;;;;;;20.60;64.70;;;;;;493124;242;1086;-44
2021/07/08 07:22:59;;;;;;;;;;;20.70;64.60;;;;;;493146;242;962;-44
2021/07/08 07:25:00;;;;;;;;;;;20.70;64.50;;;;;;492668;242;870;-44
2021/07/08 07:27:01;;;;;;;;;;;20.70;64.40;;;;;;492142;242;990;-43
2021/07/08 07:29:03;;;;;;;;;;;20.80;64.40;;;;;;492074;242;887;-44
2021/07/08 07:31:04;;;;;;;;;;;20.80;64.20;;;;;;492131;242;1021;-44
2021/07/08 07:33:05;;;;;;;;;;;20.80;64.20;;;;;;492458;242;1178;-44
2021/07/08 07:35:06;;;;;;;;;;;20.90;64.10;;;;;;492474;242;2195;-44
2021/07/08 07:37:08;;;;;;;;;;;20.90;63.90;;;;;;492482;242;973;-44
2021/07/08 07:39:09;;;;;;;;;;;20.90;63.90;;;;;;493110;241;864;-43
2021/07/08 07:41:10;;;;;;;;;;;20.90;63.80;;;;;;492933;242;837;-44
2021/07/08 07:43:13;;;;;;;;;;;20.90;63.90;;;;;;492903;242;1104;-44
2021/07/08 07:45:13;;;;;;;;;;;20.90;63.90;;;;;;492470;242;2080;-44
2021/07/08 07:47:14;;;;;;;;;;;20.90;64.00;;;;;;492959;242;1244;-44
2021/07/08 07:49:16;;;;;;;;;;;20.90;63.90;;;;;;492376;242;1083;-43
2021/07/08 07:51:17;;;;;;;;;;;20.90;63.80;;;;;;492251;242;1197;-44
2021/07/08 07:53:19;;;;;;;;;;;20.90;64.00;;;;;;492873;242;1049;-44
2021/07/08 07:55:21;;;;;;;;;;;20.90;64.10;;;;;;492301;242;2188;-44
2021/07/08 07:57:21;;;;;;;;;;;20.80;64.30;;;;;;492748;242;1785;-44
2021/07/08 07:59:22;;;;;;;;;;;20.70;64.40;;;;;;492170;242;851;-44
2021/07/08 08:01:24;;;;;;;;;;;20.60;64.60;;;;;;492266;242;1214;-46
2021/07/08 08:03:25;;;;;;;;;;;20.60;64.70;;;;;;492588;242;1804;-44
2021/07/08 08:05:43;;;;;;;;;;;20.60;64.90;;;;;;492912;242;837;-44
2021/07/08 08:10:02;;;;;;;;;;;20.50;65.20;;;;;;493127;241;885;-44
2021/07/08 08:12:03;;;;;;;;;;;20.60;65.00;;;;;;492473;242;1059;-44
2021/07/08 08:14:04;;;;;;;;;;;20.60;64.80;;;;;;492244;242;858;-44
2021/07/08 08:16:06;;;;;;;;;;;20.70;64.70;;;;;;492330;238;2183;-44
2021/07/08 08:18:07;;;;;;;;;;;20.70;64.50;;;;;;492418;242;2481;-44
2021/07/08 08:20:08;;;;;;;;;;;20.70;64.40;;;;;;492575;242;870;-44
2021/07/08 08:22:11;;;;;;;;;;;20.70;64.40;;;;;;492501;242;1309;-44
2021/07/08 08:24:12;;;;;;;;;;;20.80;64.30;;;;;;493038;242;856;-44
2021/07/08 08:26:13;;;;;;;;;;;20.70;64.40;;;;;;492572;242;1248;-44
2021/07/08 08:28:15;;;;;;;;;;;20.70;64.50;;;;;;492747;242;1197;-44
2021/07/08 08:30:16;;;;;;;;;;;20.70;64.70;;;;;;492185;242;1049;-44
2021/07/08 08:32:17;;;;;;;;;;;20.60;64.80;;;;;;492159;242;1147;-44
2021/07/08 08:34:19;;;;;;;;;;;20.60;65.00;;;;;;492042;242;1144;-44
2021/07/08 08:36:20;;;;;;;;;;;20.50;65.20;;;;;;491965;242;2175;-44
2021/07/08 08:38:21;;;;;;;;;;;20.40;65.40;;;;;;492967;242;1049;-44
2021/07/08 08:40:23;;;;;;;;;;;20.40;65.50;;;;;;491997;242;1085;-44
2021/07/08 08:42:27;;;;;;;;;;;20.40;65.50;;;;;;492094;242;1258;-44
2021/07/08 08:44:26;;;;;;;;;;;20.40;65.60;;;;;;492440;242;2223;-44
2021/07/08 08:46:28;;;;;;;;;;;20.30;65.60;;;;;;492071;242;1369;-44
2021/07/08 08:48:29;;;;;;;;;;;20.30;65.70;;;;;;492108;242;1180;-44
2021/07/08 08:50:31;;;;;;;;;;;20.30;65.70;;;;;;492070;242;1127;-44
2021/07/08 08:52:32;;;;;;;;;;;20.30;65.80;;;;;;492021;242;1153;-44
2021/07/08 08:54:33;;;;;;;;;;;20.20;65.90;;;;;;492037;242;1155;-44
2021/07/08 08:56:35;;;;;;;;;;;20.20;65.90;;;;;;491943;242;2184;-44
2021/07/08 08:58:36;;;;;;;;;;;20.20;66.00;;;;;;492090;242;1176;-44
2021/07/08 09:00:37;;;;;;;;;;;20.20;65.90;;;;;;492100;242;1200;-44
2021/07/08 09:02:39;;;;;;;;;;;20.20;65.90;;;;;;493039;242;1090;-44
2021/07/08 09:04:40;;;;;;;;;;;20.10;65.90;;;;;;492628;242;1315;-44
2021/07/08 09:06:41;;;;;;;;;;;20.20;66.00;;;;;;493018;242;1230;-44
2021/07/08 09:08:44;;;;;;;;;;;20.20;66.00;;;;;;493061;242;1022;-44
2021/07/08 09:10:45;;;;;;;;;;;20.20;65.90;;;;;;492973;242;1338;-44
2021/07/08 09:12:46;;;;;;;;;;;20.20;65.80;;;;;;492542;242;1174;-44
2021/07/08 09:14:47;;;;;;;;;;;20.20;65.90;;;;;;492573;242;1021;-44
2021/07/08 09:16:48;;;;;;;;;;;20.20;65.90;;;;;;492979;237;2195;-44
2021/07/08 09:18:50;;;;;;;;;;;20.10;65.90;;;;;;492985;242;1220;-44
2021/07/08 09:20:51;;;;;;;;;;;20.10;65.90;;;;;;493033;242;920;-44
2021/07/08 09:22:52;;;;;;;;;;;20.10;65.90;;;;;;492996;242;1406;-44
2021/07/08 09:24:54;;;;;;;;;;;20.10;65.80;;;;;;492547;242;1595;-44
2021/07/08 09:26:55;;;;;;;;;;;20.10;65.80;;;;;;492403;242;1321;-44
2021/07/08 09:28:56;;;;;;;;;;;20.10;65.80;;;;;;492960;242;969;-44
2021/07/08 09:30:58;;;;;;;;;;;20.10;65.80;;;;;;492470;242;1285;-44
2021/07/08 09:32:59;;;;;;;;;;;20.10;65.90;;;;;;493046;242;1256;-44
2021/07/08 09:35:00;;;;;;;;;;;20.10;65.90;;;;;;492775;242;1088;-44
2021/07/08 09:37:02;;;;;;;;;;;20.10;66.00;;;;;;491938;242;2172;-44
2021/07/08 09:39:03;;;;;;;;;;;20.00;65.90;;;;;;491887;242;1202;-44
2021/07/08 09:41:05;;;;;;;;;;;20.00;65.90;;;;;;491821;242;1193;-44
2021/07/08 09:43:06;;;;;;;;;;;20.00;65.80;;;;;;491731;242;1072;-44
2021/07/08 09:45:07;;;;;;;;;;;20.00;65.80;;;;;;491795;242;1226;-44
2021/07/08 09:47:09;;;;;;;;;;;20.00;65.80;;;;;;491826;242;1166;-44
2021/07/08 09:49:11;;;;;;;;;;;20.00;65.90;;;;;;492082;242;1239;-44
2021/07/08 09:51:11;;;;;;;;;;;20.00;65.90;;;;;;491993;242;1389;-44
2021/07/08 09:53:17;;;;;;;;;;;20.00;65.90;;;;;;492263;242;1052;-44
2021/07/08 09:55:17;;;;;;;;;;;20.00;65.80;;;;;;492478;242;1818;-44
2021/07/08 09:57:18;;;;;;;;;;;20.00;65.80;;;;;;492871;242;2187;-44
2021/07/08 09:59:20;;;;;;;;;;;20.00;65.70;;;;;;492949;242;840;-44
2021/07/08 10:01:21;;;;;;;;;;;20.00;65.70;;;;;;492953;242;969;-44
2021/07/08 10:03:23;;;;;;;;;;;20.00;65.70;;;;;;492851;242;1140;-44
2021/07/08 10:05:25;;;;;;;;;;;20.00;65.70;;;;;;492492;242;1940;-44
2021/07/08 10:07:25;;;;;;;;;;;20.00;65.70;;;;;;492604;242;1130;-44
2021/07/08 10:09:27;;;;;;;;;;;20.10;65.60;;;;;;492998;242;887;-44
2021/07/08 10:11:28;;;;;;;;;;;20.20;65.30;;;;;;492959;242;1093;-44
2021/07/08 10:13:29;;;;;;;;;;;20.30;65.00;;;;;;492582;242;1018;-44
2021/07/08 10:15:31;;;;;;;;;;;20.40;64.90;;;;;;492532;242;874;-44
2021/07/08 10:17:32;;;;;;;;;;;20.40;64.80;;;;;;493014;242;2191;-44
2021/07/08 10:19:33;;;;;;;;;;;20.50;64.70;;;;;;493068;242;1128;-44
2021/07/08 10:21:35;;;;;;;;;;;20.50;64.60;;;;;;493043;242;1095;-44
2021/07/08 10:23:36;;;;;;;;;;;20.50;64.50;;;;;;492977;241;879;-44
2021/07/08 10:25:37;;;;;;;;;;;20.60;64.50;;;;;;492476;242;1169;-44
2021/07/08 10:27:38;;;;;;;;;;;20.60;64.40;;;;;;493077;242;1103;-44
2021/07/08 10:29:40;;;;;;;;;;;20.60;64.40;;;;;;493089;242;1190;-44
2021/07/08 10:31:41;;;;;;;;;;;20.60;64.40;;;;;;492549;242;1133;-44
2021/07/08 10:33:43;;;;;;;;;;;20.60;64.30;;;;;;493088;241;866;-44
2021/07/08 10:35:44;;;;;;;;;;;20.60;64.40;;;;;;492647;242;1171;-44
2021/07/08 10:37:45;;;;;;;;;;;20.60;64.30;;;;;;492787;242;2191;-44
2021/07/08 10:39:46;;;;;;;;;;;20.60;64.30;;;;;;492291;242;1345;-44
2021/07/08 10:41:48;;;;;;;;;;;20.70;64.20;;;;;;492836;242;1223;-44
2021/07/08 10:43:49;;;;;;;;;;;20.70;64.20;;;;;;492910;242;1215;-44
2021/07/08 10:45:52;;;;;;;;;;;20.70;64.20;;;;;;492950;242;1219;-44
2021/07/08 10:47:52;;;;;;;;;;;20.70;64.20;;;;;;492666;242;1907;-44
2021/07/08 10:49:53;;;;;;;;;;;20.70;64.20;;;;;;492789;242;1035;-44
2021/07/08 10:51:54;;;;;;;;;;;20.70;64.10;;;;;;492352;242;1090;-44
2021/07/08 10:53:56;;;;;;;;;;;20.70;64.20;;;;;;492022;242;1176;-44
2021/07/08 10:55:57;;;;;;;;;;;20.70;64.20;;;;;;491955;242;2172;-44
2021/07/08 10:57:58;;;;;;;;;;;20.70;64.10;;;;;;491942;242;1200;-44
2021/07/08 11:00:00;;;;;;;;;;;20.80;64.10;;;;;;492205;242;1080;-44
2021/07/08 11:02:01;;;;;;;;;;;20.80;64.10;;;;;;492059;242;1252;-44
2021/07/08 11:04:02;;;;;;;;;;;20.80;64.10;;;;;;492143;242;1214;-44
2021/07/08 11:06:04;;;;;;;;;;;20.80;64.10;;;;;;492101;242;1314;-44
2021/07/08 11:08:05;;;;;;;;;;;20.80;64.10;;;;;;492082;242;1065;-43
2021/07/08 11:10:06;;;;;;;;;;;20.80;64.20;;;;;;492191;242;1068;-44
2021/07/08 11:12:08;;;;;;;;;;;20.80;64.20;;;;;;492352;242;1430;-44
2021/07/08 11:14:11;;;;;;;;;;;20.80;64.00;;;;;;492389;242;1084;-44
2021/07/08 11:16:10;;;;;;;;;;;20.80;63.90;;;;;;492049;240;2187;-44
2021/07/08 11:18:12;;;;;;;;;;;20.90;63.90;;;;;;492203;242;1452;-44
2021/07/08 11:20:13;;;;;;;;;;;20.80;63.90;;;;;;492101;241;1227;-44
2021/07/08 11:22:16;;;;;;;;;;;20.80;64.00;;;;;;492214;242;1242;-44
2021/07/08 11:24:16;;;;;;;;;;;20.80;64.10;;;;;;492213;241;2306;-44
2021/07/08 11:26:17;;;;;;;;;;;20.80;64.00;;;;;;492196;242;1071;-44
2021/07/08 11:28:18;;;;;;;;;;;20.80;64.00;;;;;;492076;242;1078;-44
2021/07/08 11:30:20;;;;;;;;;;;20.80;64.00;;;;;;492111;242;1073;-44
2021/07/08 11:32:21;;;;;;;;;;;20.80;64.10;;;;;;492155;242;1194;-44
2021/07/08 11:34:22;;;;;;;;;;;20.80;64.00;;;;;;491885;242;1399;-44
2021/07/08 11:36:24;;;;;;;;;;;20.80;64.00;;;;;;492068;242;2199;-44
2021/07/08 11:38:25;;;;;;;;;;;20.80;64.00;;;;;;492259;242;1102;-44
2021/07/08 11:40:26;;;;;;;;;;;20.80;64.00;;;;;;492257;242;1239;-44
2021/07/08 11:42:28;;;;;;;;;;;20.80;64.10;;;;;;492200;242;1210;-44
2021/07/08 11:44:31;;;;;;;;;;;20.80;64.00;;;;;;492386;242;1152;-44
2021/07/08 11:46:31;;;;;;;;;;;20.80;64.00;;;;;;492532;242;2062;-44
2021/07/08 11:48:33;;;;;;;;;;;20.80;64.00;;;;;;493010;242;1081;-44
2021/07/08 11:50:34;;;;;;;;;;;20.80;64.00;;;;;;492945;242;1231;-44
2021/07/08 11:52:35;;;;;;;;;;;20.80;64.00;;;;;;493162;242;1423;-44
2021/07/08 11:54:37;;;;;;;;;;;20.80;64.00;;;;;;492722;242;2099;-44
2021/07/08 11:56:38;;;;;;;;;;;20.80;64.10;;;;;;493094;242;2240;-44
2021/07/08 11:58:39;;;;;;;;;;;20.80;64.00;;;;;;492985;242;1291;-44
2021/07/08 12:00:41;;;;;;;;;;;20.80;64.00;;;;;;492887;242;1381;-44
2021/07/08 12:02:43;;;;;;;;;;;20.80;64.00;;;;;;493155;242;1074;-44